sensor_id;sensor_type;location;lat;lon;timestamp;temperature;humidity
22418;DHT22;11376;50.932;4.442;2022-12-26T00:01:30;10.70;99.90
22418;DHT22;11376;50.932;4.442;2022-12-26T00:03:56;10.70;99.90
22418;DHT22;11376;50.932;4.442;2022-12-26T00:06:24;10.60;99.90
22418;DHT22;11376;50.932;4.442;2022-12-26T00:08:51;10.60;99.90
22418;DHT22;11376;50.932;4.442;2022-12-26T00:11:17;10.70;99.90
22418;DHT22;11376;50.932;4.442;2022-12-26T00:13:43;10.60;99.90
22418;DHT22;11376;50.932;4.442;2022-12-26T00:16:11;10.60;99.90
22418;DHT22;11376;50.932;4.442;2022-12-26T00:18:38;10.60;99.90
22418;DHT22;11376;50.932;4.442;2022-12-26T00:21:04;10.60;99.90
22418;DHT22;11376;50.932;4.442;2022-12-26T00:23:31;10.60;99.90
22418;DHT22;11376;50.932;4.442;2022-12-26T00:26:04;10.60;99.90
22418;DHT22;11376;50.932;4.442;2022-12-26T00:28:29;10.50;99.90
22418;DHT22;11376;50.932;4.442;2022-12-26T00:30:55;10.50;99.90
22418;DHT22;11376;50.932;4.442;2022-12-26T00:33:21;10.50;99.90
22418;DHT22;11376;50.932;4.442;2022-12-26T00:35:46;10.50;99.90
22418;DHT22;11376;50.932;4.442;2022-12-26T00:38:12;10.50;99.90
22418;DHT22;11376;50.932;4.442;2022-12-26T00:40:37;10.50;99.90
22418;DHT22;11376;50.932;4.442;2022-12-26T00:43:10;10.50;99.90
22418;DHT22;11376;50.932;4.442;2022-12-26T00:45:36;10.60;99.90
22418;DHT22;11376;50.932;4.442;2022-12-26T00:48:02;10.50;99.90
22418;DHT22;11376;50.932;4.442;2022-12-26T00:50:28;10.50;99.90
22418;DHT22;11376;50.932;4.442;2022-12-26T00:52:53;10.50;99.90
22418;DHT22;11376;50.932;4.442;2022-12-26T00:55:21;10.60;99.90
22418;DHT22;11376;50.932;4.442;2022-12-26T00:57:47;10.60;99.90
22418;DHT22;11376;50.932;4.442;2022-12-26T01:00:13;10.50;99.90
22418;DHT22;11376;50.932;4.442;2022-12-26T01:02:39;10.50;99.90
22418;DHT22;11376;50.932;4.442;2022-12-26T01:05:09;10.50;99.90
22418;DHT22;11376;50.932;4.442;2022-12-26T01:07:37;10.40;99.90
22418;DHT22;11376;50.932;4.442;2022-12-26T01:10:04;10.40;99.90
22418;DHT22;11376;50.932;4.442;2022-12-26T01:12:30;10.40;99.90
22418;DHT22;11376;50.932;4.442;2022-12-26T01:14:59;10.40;99.90
22418;DHT22;11376;50.932;4.442;2022-12-26T01:17:25;10.40;99.90
22418;DHT22;11376;50.932;4.442;2022-12-26T01:19:51;10.40;99.90
22418;DHT22;11376;50.932;4.442;2022-12-26T01:22:17;10.40;99.90
22418;DHT22;11376;50.932;4.442;2022-12-26T01:24:43;10.40;99.90
22418;DHT22;11376;50.932;4.442;2022-12-26T01:27:08;10.50;99.90
22418;DHT22;11376;50.932;4.442;2022-12-26T01:29:34;10.40;99.90
22418;DHT22;11376;50.932;4.442;2022-12-26T01:31:59;10.40;99.90
22418;DHT22;11376;50.932;4.442;2022-12-26T01:34:25;10.40;99.90
22418;DHT22;11376;50.932;4.442;2022-12-26T01:36:52;10.30;99.90
22418;DHT22;11376;50.932;4.442;2022-12-26T01:39:18;10.30;99.90
22418;DHT22;11376;50.932;4.442;2022-12-26T01:41:43;10.40;99.90
22418;DHT22;11376;50.932;4.442;2022-12-26T01:47:13;10.30;99.90
22418;DHT22;11376;50.932;4.442;2022-12-26T01:49:47;10.30;99.90
22418;DHT22;11376;50.932;4.442;2022-12-26T01:52:20;10.30;99.90
22418;DHT22;11376;50.932;4.442;2022-12-26T01:54:50;10.30;99.90
22418;DHT22;11376;50.932;4.442;2022-12-26T01:57:23;10.30;99.90
22418;DHT22;11376;50.932;4.442;2022-12-26T01:59:51;10.20;99.90
22418;DHT22;11376;50.932;4.442;2022-12-26T02:02:18;10.20;99.90
22418;DHT22;11376;50.932;4.442;2022-12-26T02:04:48;10.30;99.90
22418;DHT22;11376;50.932;4.442;2022-12-26T02:07:35;10.20;99.90
22418;DHT22;11376;50.932;4.442;2022-12-26T02:10:02;10.20;99.90
22418;DHT22;11376;50.932;4.442;2022-12-26T02:12:29;10.20;99.90
22418;DHT22;11376;50.932;4.442;2022-12-26T02:14:56;10.20;99.90
22418;DHT22;11376;50.932;4.442;2022-12-26T02:17:22;10.20;99.90
22418;DHT22;11376;50.932;4.442;2022-12-26T02:20:10;10.20;99.90
22418;DHT22;11376;50.932;4.442;2022-12-26T02:45:43;10.20;99.90
22418;DHT22;11376;50.932;4.442;2022-12-26T02:52:06;10.20;99.90
22418;DHT22;11376;50.932;4.442;2022-12-26T02:55:08;10.20;99.90
22418;DHT22;11376;50.932;4.442;2022-12-26T02:58:00;10.20;99.90
22418;DHT22;11376;50.932;4.442;2022-12-26T03:00:49;10.20;99.90
22418;DHT22;11376;50.932;4.442;2022-12-26T03:03:36;10.20;99.90
22418;DHT22;11376;50.932;4.442;2022-12-26T03:06:23;10.20;99.90
22418;DHT22;11376;50.932;4.442;2022-12-26T03:09:21;10.20;99.90
22418;DHT22;11376;50.932;4.442;2022-12-26T03:15:08;10.10;99.90
22418;DHT22;11376;50.932;4.442;2022-12-26T03:20:14;10.10;99.90
22418;DHT22;11376;50.932;4.442;2022-12-26T03:22:51;10.10;99.90
22418;DHT22;11376;50.932;4.442;2022-12-26T03:25:44;10.10;99.90
22418;DHT22;11376;50.932;4.442;2022-12-26T03:28:31;10.20;99.90
22418;DHT22;11376;50.932;4.442;2022-12-26T03:30:59;10.20;99.90
22418;DHT22;11376;50.932;4.442;2022-12-26T03:33:28;10.20;99.90
22418;DHT22;11376;50.932;4.442;2022-12-26T03:42:03;10.30;99.90
22418;DHT22;11376;50.932;4.442;2022-12-26T03:45:45;10.30;99.90
22418;DHT22;11376;50.932;4.442;2022-12-26T03:51:09;10.30;99.90
22418;DHT22;11376;50.932;4.442;2022-12-26T03:54:14;10.30;99.90
22418;DHT22;11376;50.932;4.442;2022-12-26T03:57:09;10.40;99.90
22418;DHT22;11376;50.932;4.442;2022-12-26T04:00:07;10.30;99.90
22418;DHT22;11376;50.932;4.442;2022-12-26T04:02:54;10.30;99.90
22418;DHT22;11376;50.932;4.442;2022-12-26T04:05:44;10.30;99.90
22418;DHT22;11376;50.932;4.442;2022-12-26T04:08:46;10.30;99.90
22418;DHT22;11376;50.932;4.442;2022-12-26T04:11:35;10.30;99.90
22418;DHT22;11376;50.932;4.442;2022-12-26T04:14:39;10.30;99.90
22418;DHT22;11376;50.932;4.442;2022-12-26T04:17:53;10.40;99.90
22418;DHT22;11376;50.932;4.442;2022-12-26T04:24:02;10.40;99.90
22418;DHT22;11376;50.932;4.442;2022-12-26T04:26:53;10.40;99.90
22418;DHT22;11376;50.932;4.442;2022-12-26T04:29:38;10.40;99.90
22418;DHT22;11376;50.932;4.442;2022-12-26T04:32:46;10.40;99.90
22418;DHT22;11376;50.932;4.442;2022-12-26T04:35:36;10.40;99.90
22418;DHT22;11376;50.932;4.442;2022-12-26T04:38:27;10.40;99.90
22418;DHT22;11376;50.932;4.442;2022-12-26T04:41:12;10.40;99.90
22418;DHT22;11376;50.932;4.442;2022-12-26T04:43:59;10.40;99.90
22418;DHT22;11376;50.932;4.442;2022-12-26T04:46:41;10.40;99.90
22418;DHT22;11376;50.932;4.442;2022-12-26T04:49:10;10.40;99.90
22418;DHT22;11376;50.932;4.442;2022-12-26T04:51:56;10.40;99.90
22418;DHT22;11376;50.932;4.442;2022-12-26T04:54:22;10.40;99.90
22418;DHT22;11376;50.932;4.442;2022-12-26T04:56:47;10.40;99.90
22418;DHT22;11376;50.932;4.442;2022-12-26T04:59:14;10.40;99.90
22418;DHT22;11376;50.932;4.442;2022-12-26T05:01:40;10.40;99.90
22418;DHT22;11376;50.932;4.442;2022-12-26T05:04:24;10.40;99.90
22418;DHT22;11376;50.932;4.442;2022-12-26T05:07:23;10.40;99.90
22418;DHT22;11376;50.932;4.442;2022-12-26T05:10:12;10.40;99.90
22418;DHT22;11376;50.932;4.442;2022-12-26T05:12:39;10.40;99.90
22418;DHT22;11376;50.932;4.442;2022-12-26T05:15:05;10.40;99.90
22418;DHT22;11376;50.932;4.442;2022-12-26T05:17:31;10.50;99.90
22418;DHT22;11376;50.932;4.442;2022-12-26T05:20:15;10.40;99.90
22418;DHT22;11376;50.932;4.442;2022-12-26T05:23:01;10.50;99.90
22418;DHT22;11376;50.932;4.442;2022-12-26T05:25:46;10.50;99.90
22418;DHT22;11376;50.932;4.442;2022-12-26T05:28:31;10.50;99.90
22418;DHT22;11376;50.932;4.442;2022-12-26T05:31:15;10.60;99.90
22418;DHT22;11376;50.932;4.442;2022-12-26T05:33:42;10.60;99.90
22418;DHT22;11376;50.932;4.442;2022-12-26T05:36:37;10.70;99.90
22418;DHT22;11376;50.932;4.442;2022-12-26T05:39:05;10.60;99.90
22418;DHT22;11376;50.932;4.442;2022-12-26T05:41:31;10.60;99.90
22418;DHT22;11376;50.932;4.442;2022-12-26T05:43:56;10.60;99.90
22418;DHT22;11376;50.932;4.442;2022-12-26T05:46:22;10.60;99.90
22418;DHT22;11376;50.932;4.442;2022-12-26T05:48:47;10.70;99.90
22418;DHT22;11376;50.932;4.442;2022-12-26T05:51:13;10.70;99.90
22418;DHT22;11376;50.932;4.442;2022-12-26T05:53:39;10.70;99.90
22418;DHT22;11376;50.932;4.442;2022-12-26T05:56:06;10.70;99.90
22418;DHT22;11376;50.932;4.442;2022-12-26T05:58:32;10.70;99.90
22418;DHT22;11376;50.932;4.442;2022-12-26T06:01:13;10.70;99.90
22418;DHT22;11376;50.932;4.442;2022-12-26T06:03:40;10.70;99.90
22418;DHT22;11376;50.932;4.442;2022-12-26T06:06:08;10.70;99.90
22418;DHT22;11376;50.932;4.442;2022-12-26T06:08:34;10.70;99.90
22418;DHT22;11376;50.932;4.442;2022-12-26T06:11:03;10.70;99.90
22418;DHT22;11376;50.932;4.442;2022-12-26T06:13:29;10.70;99.90
22418;DHT22;11376;50.932;4.442;2022-12-26T06:15:55;10.80;99.90
22418;DHT22;11376;50.932;4.442;2022-12-26T06:18:21;10.70;99.90
22418;DHT22;11376;50.932;4.442;2022-12-26T06:20:46;10.70;99.90
22418;DHT22;11376;50.932;4.442;2022-12-26T06:23:12;10.80;99.90
22418;DHT22;11376;50.932;4.442;2022-12-26T06:25:37;10.80;99.90
22418;DHT22;11376;50.932;4.442;2022-12-26T06:28:03;10.70;99.90
22418;DHT22;11376;50.932;4.442;2022-12-26T06:30:28;10.70;99.90
22418;DHT22;11376;50.932;4.442;2022-12-26T06:32:54;10.70;99.90
22418;DHT22;11376;50.932;4.442;2022-12-26T06:35:19;10.70;99.90
22418;DHT22;11376;50.932;4.442;2022-12-26T06:37:45;10.70;99.90
22418;DHT22;11376;50.932;4.442;2022-12-26T06:40:11;10.70;99.90
22418;DHT22;11376;50.932;4.442;2022-12-26T06:42:36;10.70;99.90
22418;DHT22;11376;50.932;4.442;2022-12-26T06:45:02;10.70;99.90
22418;DHT22;11376;50.932;4.442;2022-12-26T06:47:28;10.70;99.90
22418;DHT22;11376;50.932;4.442;2022-12-26T06:49:54;10.70;99.90
22418;DHT22;11376;50.932;4.442;2022-12-26T06:52:19;10.70;99.90
22418;DHT22;11376;50.932;4.442;2022-12-26T06:54:45;10.70;99.90
22418;DHT22;11376;50.932;4.442;2022-12-26T06:57:11;10.70;99.90
22418;DHT22;11376;50.932;4.442;2022-12-26T06:59:36;10.70;99.90
22418;DHT22;11376;50.932;4.442;2022-12-26T07:02:02;10.70;99.90
22418;DHT22;11376;50.932;4.442;2022-12-26T07:04:27;10.70;99.90
22418;DHT22;11376;50.932;4.442;2022-12-26T07:06:53;10.60;99.90
22418;DHT22;11376;50.932;4.442;2022-12-26T07:09:19;10.60;99.90
22418;DHT22;11376;50.932;4.442;2022-12-26T07:11:47;10.60;99.90
22418;DHT22;11376;50.932;4.442;2022-12-26T07:14:13;10.60;99.90
22418;DHT22;11376;50.932;4.442;2022-12-26T07:16:41;10.50;99.90
22418;DHT22;11376;50.932;4.442;2022-12-26T07:19:08;10.50;99.90
22418;DHT22;11376;50.932;4.442;2022-12-26T07:21:34;10.50;99.90
22418;DHT22;11376;50.932;4.442;2022-12-26T07:23:59;10.50;99.90
22418;DHT22;11376;50.932;4.442;2022-12-26T07:26:25;10.50;99.90
22418;DHT22;11376;50.932;4.442;2022-12-26T07:28:55;10.50;99.90
22418;DHT22;11376;50.932;4.442;2022-12-26T07:31:21;10.40;99.90
22418;DHT22;11376;50.932;4.442;2022-12-26T07:33:51;10.40;99.90
22418;DHT22;11376;50.932;4.442;2022-12-26T07:36:17;10.40;99.90
22418;DHT22;11376;50.932;4.442;2022-12-26T07:38:43;10.40;99.90
22418;DHT22;11376;50.932;4.442;2022-12-26T07:41:09;10.40;99.90
22418;DHT22;11376;50.932;4.442;2022-12-26T07:43:54;10.40;99.90
22418;DHT22;11376;50.932;4.442;2022-12-26T07:46:20;10.40;99.90
22418;DHT22;11376;50.932;4.442;2022-12-26T07:48:46;10.40;99.90
22418;DHT22;11376;50.932;4.442;2022-12-26T07:51:12;10.40;99.90
22418;DHT22;11376;50.932;4.442;2022-12-26T07:53:37;10.50;99.90
22418;DHT22;11376;50.932;4.442;2022-12-26T07:56:03;10.50;99.90
22418;DHT22;11376;50.932;4.442;2022-12-26T07:58:29;10.40;99.90
22418;DHT22;11376;50.932;4.442;2022-12-26T08:00:54;10.30;99.90
22418;DHT22;11376;50.932;4.442;2022-12-26T08:03:20;10.30;99.90
22418;DHT22;11376;50.932;4.442;2022-12-26T08:05:47;10.30;99.90
22418;DHT22;11376;50.932;4.442;2022-12-26T08:08:12;10.40;99.90
22418;DHT22;11376;50.932;4.442;2022-12-26T08:10:38;10.40;99.90
22418;DHT22;11376;50.932;4.442;2022-12-26T08:13:04;10.40;99.90
22418;DHT22;11376;50.932;4.442;2022-12-26T08:15:29;10.40;99.90
22418;DHT22;11376;50.932;4.442;2022-12-26T08:17:55;10.50;99.90
22418;DHT22;11376;50.932;4.442;2022-12-26T08:20:20;10.50;99.90
22418;DHT22;11376;50.932;4.442;2022-12-26T08:22:46;10.50;99.90
22418;DHT22;11376;50.932;4.442;2022-12-26T08:25:12;10.60;99.90
22418;DHT22;11376;50.932;4.442;2022-12-26T08:27:37;10.50;99.90
22418;DHT22;11376;50.932;4.442;2022-12-26T08:30:03;10.50;99.90
22418;DHT22;11376;50.932;4.442;2022-12-26T08:32:29;10.50;99.90
22418;DHT22;11376;50.932;4.442;2022-12-26T08:34:55;10.50;99.90
22418;DHT22;11376;50.932;4.442;2022-12-26T08:37:20;10.50;99.90
22418;DHT22;11376;50.932;4.442;2022-12-26T08:39:48;10.50;99.90
22418;DHT22;11376;50.932;4.442;2022-12-26T08:42:14;10.50;99.90
22418;DHT22;11376;50.932;4.442;2022-12-26T08:44:39;10.50;99.90
22418;DHT22;11376;50.932;4.442;2022-12-26T08:47:05;10.60;99.90
22418;DHT22;11376;50.932;4.442;2022-12-26T08:49:31;10.60;99.90
22418;DHT22;11376;50.932;4.442;2022-12-26T08:51:56;10.60;99.90
22418;DHT22;11376;50.932;4.442;2022-12-26T08:54:22;10.60;99.90
22418;DHT22;11376;50.932;4.442;2022-12-26T08:56:47;10.60;99.90
22418;DHT22;11376;50.932;4.442;2022-12-26T08:59:13;10.60;99.90
22418;DHT22;11376;50.932;4.442;2022-12-26T09:01:39;10.60;99.90
22418;DHT22;11376;50.932;4.442;2022-12-26T09:04:04;10.70;99.90
22418;DHT22;11376;50.932;4.442;2022-12-26T09:06:33;10.70;99.90
22418;DHT22;11376;50.932;4.442;2022-12-26T09:09:00;10.70;99.90
22418;DHT22;11376;50.932;4.442;2022-12-26T09:11:26;10.80;99.90
22418;DHT22;11376;50.932;4.442;2022-12-26T09:13:52;10.80;99.90
22418;DHT22;11376;50.932;4.442;2022-12-26T09:16:29;10.80;99.90
22418;DHT22;11376;50.932;4.442;2022-12-26T09:18:57;10.90;99.90
22418;DHT22;11376;50.932;4.442;2022-12-26T09:21:25;10.80;99.90
22418;DHT22;11376;50.932;4.442;2022-12-26T09:23:58;10.80;99.90
22418;DHT22;11376;50.932;4.442;2022-12-26T09:26:24;10.70;99.90
22418;DHT22;11376;50.932;4.442;2022-12-26T09:28:51;10.50;99.90
22418;DHT22;11376;50.932;4.442;2022-12-26T09:31:19;10.20;99.90
22418;DHT22;11376;50.932;4.442;2022-12-26T09:33:45;10.10;99.90
22418;DHT22;11376;50.932;4.442;2022-12-26T09:36:17;10.10;99.90
22418;DHT22;11376;50.932;4.442;2022-12-26T09:38:44;10.10;99.90
22418;DHT22;11376;50.932;4.442;2022-12-26T09:41:39;10.10;99.90
22418;DHT22;11376;50.932;4.442;2022-12-26T09:49:33;10.20;99.90
22418;DHT22;11376;50.932;4.442;2022-12-26T09:52:13;10.10;99.90
22418;DHT22;11376;50.932;4.442;2022-12-26T09:54:43;10.10;99.90
22418;DHT22;11376;50.932;4.442;2022-12-26T09:57:16;10.10;99.90
22418;DHT22;11376;50.932;4.442;2022-12-26T09:59:55;10.10;99.90
22418;DHT22;11376;50.932;4.442;2022-12-26T10:02:23;10.20;99.90
22418;DHT22;11376;50.932;4.442;2022-12-26T10:04:49;10.10;99.90
22418;DHT22;11376;50.932;4.442;2022-12-26T10:07:29;10.00;99.90
22418;DHT22;11376;50.932;4.442;2022-12-26T10:10:29;10.10;99.90
22418;DHT22;11376;50.932;4.442;2022-12-26T10:15:58;10.00;99.90
22418;DHT22;11376;50.932;4.442;2022-12-26T10:18:51;10.00;99.90
22418;DHT22;11376;50.932;4.442;2022-12-26T10:24:16;10.00;99.90
22418;DHT22;11376;50.932;4.442;2022-12-26T10:26:46;10.00;99.90
22418;DHT22;11376;50.932;4.442;2022-12-26T10:29:30;10.00;99.90
22418;DHT22;11376;50.932;4.442;2022-12-26T10:34:55;10.00;99.90
22418;DHT22;11376;50.932;4.442;2022-12-26T10:37:34;10.00;99.90
22418;DHT22;11376;50.932;4.442;2022-12-26T10:42:53;10.00;99.90
22418;DHT22;11376;50.932;4.442;2022-12-26T10:47:56;10.10;99.90
22418;DHT22;11376;50.932;4.442;2022-12-26T10:50:25;10.10;99.90
22418;DHT22;11376;50.932;4.442;2022-12-26T10:52:52;10.20;99.90
22418;DHT22;11376;50.932;4.442;2022-12-26T10:55:19;10.10;99.90
22418;DHT22;11376;50.932;4.442;2022-12-26T10:57:49;10.10;99.90
22418;DHT22;11376;50.932;4.442;2022-12-26T11:05:35;9.70;99.90
22418;DHT22;11376;50.932;4.442;2022-12-26T11:08:08;9.50;99.90
22418;DHT22;11376;50.932;4.442;2022-12-26T11:10:40;9.40;99.90
22418;DHT22;11376;50.932;4.442;2022-12-26T11:13:17;9.30;99.90
22418;DHT22;11376;50.932;4.442;2022-12-26T11:15:50;9.30;99.90
22418;DHT22;11376;50.932;4.442;2022-12-26T11:18:22;9.40;99.90
22418;DHT22;11376;50.932;4.442;2022-12-26T11:20:52;9.40;99.90
22418;DHT22;11376;50.932;4.442;2022-12-26T11:23:35;9.40;99.90
22418;DHT22;11376;50.932;4.442;2022-12-26T11:26:01;9.50;99.90
22418;DHT22;11376;50.932;4.442;2022-12-26T11:28:34;9.50;99.90
22418;DHT22;11376;50.932;4.442;2022-12-26T11:31:04;9.50;99.90
22418;DHT22;11376;50.932;4.442;2022-12-26T11:33:35;9.50;99.90
22418;DHT22;11376;50.932;4.442;2022-12-26T11:39:06;9.40;99.90
22418;DHT22;11376;50.932;4.442;2022-12-26T11:41:40;9.40;99.90
22418;DHT22;11376;50.932;4.442;2022-12-26T11:49:24;9.60;99.90
22418;DHT22;11376;50.932;4.442;2022-12-26T11:51:51;9.60;99.90
22418;DHT22;11376;50.932;4.442;2022-12-26T11:54:24;9.60;99.90
22418;DHT22;11376;50.932;4.442;2022-12-26T11:57:00;9.50;99.90
22418;DHT22;11376;50.932;4.442;2022-12-26T11:59:26;9.50;99.90
22418;DHT22;11376;50.932;4.442;2022-12-26T12:04:37;9.40;99.90
22418;DHT22;11376;50.932;4.442;2022-12-26T12:07:12;9.40;99.90
22418;DHT22;11376;50.932;4.442;2022-12-26T12:09:51;9.40;99.90
22418;DHT22;11376;50.932;4.442;2022-12-26T12:12:35;9.30;99.90
22418;DHT22;11376;50.932;4.442;2022-12-26T12:15:26;9.30;99.90
22418;DHT22;11376;50.932;4.442;2022-12-26T12:18:19;9.20;99.90
22418;DHT22;11376;50.932;4.442;2022-12-26T12:20:58;9.20;99.90
22418;DHT22;11376;50.932;4.442;2022-12-26T12:26:25;9.00;99.90
22418;DHT22;11376;50.932;4.442;2022-12-26T12:29:15;9.00;99.90
22418;DHT22;11376;50.932;4.442;2022-12-26T12:34:29;9.00;99.90
22418;DHT22;11376;50.932;4.442;2022-12-26T12:37:28;8.90;99.90
22418;DHT22;11376;50.932;4.442;2022-12-26T12:40:16;8.80;99.90
22418;DHT22;11376;50.932;4.442;2022-12-26T12:59:52;8.60;99.90
22418;DHT22;11376;50.932;4.442;2022-12-26T13:02:33;8.50;99.90
22418;DHT22;11376;50.932;4.442;2022-12-26T13:05:21;8.60;99.90
22418;DHT22;11376;50.932;4.442;2022-12-26T13:07:55;8.70;99.90
22418;DHT22;11376;50.932;4.442;2022-12-26T13:10:31;8.70;99.90
22418;DHT22;11376;50.932;4.442;2022-12-26T13:13:02;8.80;99.90
22418;DHT22;11376;50.932;4.442;2022-12-26T13:15:36;8.70;99.90
22418;DHT22;11376;50.932;4.442;2022-12-26T13:18:20;8.70;99.90
22418;DHT22;11376;50.932;4.442;2022-12-26T13:20:50;8.60;99.90
22418;DHT22;11376;50.932;4.442;2022-12-26T13:23:28;8.70;99.90
22418;DHT22;11376;50.932;4.442;2022-12-26T13:26:42;8.80;99.90
22418;DHT22;11376;50.932;4.442;2022-12-26T13:29:27;8.90;99.90
22418;DHT22;11376;50.932;4.442;2022-12-26T13:31:57;8.90;99.90
22418;DHT22;11376;50.932;4.442;2022-12-26T13:34:23;8.90;99.90
22418;DHT22;11376;50.932;4.442;2022-12-26T13:36:54;8.70;99.90
22418;DHT22;11376;50.932;4.442;2022-12-26T13:39:24;8.60;99.90
22418;DHT22;11376;50.932;4.442;2022-12-26T13:42:17;8.60;99.90
22418;DHT22;11376;50.932;4.442;2022-12-26T13:50:56;8.40;99.90
22418;DHT22;11376;50.932;4.442;2022-12-26T13:58:48;8.20;99.90
22418;DHT22;11376;50.932;4.442;2022-12-26T14:04:46;8.10;99.90
22418;DHT22;11376;50.932;4.442;2022-12-26T14:07:37;8.10;99.90
22418;DHT22;11376;50.932;4.442;2022-12-26T14:10:31;8.30;99.90
22418;DHT22;11376;50.932;4.442;2022-12-26T14:15:56;8.20;99.90
22418;DHT22;11376;50.932;4.442;2022-12-26T14:18:45;8.10;99.90
22418;DHT22;11376;50.932;4.442;2022-12-26T14:21:39;8.00;99.90
22418;DHT22;11376;50.932;4.442;2022-12-26T14:35:36;7.70;99.90
22418;DHT22;11376;50.932;4.442;2022-12-26T14:40:38;7.50;99.90
22418;DHT22;11376;50.932;4.442;2022-12-26T14:43:40;7.40;99.90
22418;DHT22;11376;50.932;4.442;2022-12-26T14:49:16;7.20;99.90
22418;DHT22;11376;50.932;4.442;2022-12-26T14:51:42;7.20;99.90
22418;DHT22;11376;50.932;4.442;2022-12-26T14:54:31;7.10;99.90
22418;DHT22;11376;50.932;4.442;2022-12-26T14:56:58;7.00;99.90
22418;DHT22;11376;50.932;4.442;2022-12-26T14:59:31;6.90;99.90
22418;DHT22;11376;50.932;4.442;2022-12-26T15:02:29;6.90;99.90
22418;DHT22;11376;50.932;4.442;2022-12-26T15:05:19;6.80;99.90
22418;DHT22;11376;50.932;4.442;2022-12-26T15:11:12;6.70;99.90
22418;DHT22;11376;50.932;4.442;2022-12-26T15:17:12;6.80;99.90
22418;DHT22;11376;50.932;4.442;2022-12-26T15:25:26;6.50;99.90
22418;DHT22;11376;50.932;4.442;2022-12-26T15:33:09;6.40;99.90
22418;DHT22;11376;50.932;4.442;2022-12-26T15:35:51;6.20;99.90
22418;DHT22;11376;50.932;4.442;2022-12-26T15:41:12;6.30;99.90
22418;DHT22;11376;50.932;4.442;2022-12-26T15:43:49;6.10;99.90
22418;DHT22;11376;50.932;4.442;2022-12-26T15:46:29;6.00;99.90
22418;DHT22;11376;50.932;4.442;2022-12-26T16:00:21;5.70;99.90
22418;DHT22;11376;50.932;4.442;2022-12-26T16:03:16;5.70;99.90
22418;DHT22;11376;50.932;4.442;2022-12-26T16:11:37;5.60;99.90
22418;DHT22;11376;50.932;4.442;2022-12-26T16:14:22;5.60;99.90
22418;DHT22;11376;50.932;4.442;2022-12-26T16:16:48;5.60;99.90
22418;DHT22;11376;50.932;4.442;2022-12-26T16:19:20;5.50;99.90
22418;DHT22;11376;50.932;4.442;2022-12-26T16:21:50;5.50;99.90
22418;DHT22;11376;50.932;4.442;2022-12-26T16:24:39;5.50;99.90
22418;DHT22;11376;50.932;4.442;2022-12-26T16:27:07;5.50;99.90
22418;DHT22;11376;50.932;4.442;2022-12-26T16:29:39;5.50;99.90
22418;DHT22;11376;50.932;4.442;2022-12-26T16:32:15;5.50;99.90
22418;DHT22;11376;50.932;4.442;2022-12-26T16:34:42;5.50;99.90
22418;DHT22;11376;50.932;4.442;2022-12-26T16:37:18;5.50;99.90
22418;DHT22;11376;50.932;4.442;2022-12-26T16:39:44;5.50;99.90
22418;DHT22;11376;50.932;4.442;2022-12-26T16:42:28;5.50;99.90
22418;DHT22;11376;50.932;4.442;2022-12-26T16:44:55;5.50;99.90
22418;DHT22;11376;50.932;4.442;2022-12-26T16:47:21;5.40;99.90
22418;DHT22;11376;50.932;4.442;2022-12-26T16:49:47;5.40;99.90
22418;DHT22;11376;50.932;4.442;2022-12-26T16:54:54;5.40;99.90
22418;DHT22;11376;50.932;4.442;2022-12-26T16:57:20;5.50;99.90
22418;DHT22;11376;50.932;4.442;2022-12-26T16:59:55;5.40;99.90
22418;DHT22;11376;50.932;4.442;2022-12-26T17:02:25;5.50;99.90
22418;DHT22;11376;50.932;4.442;2022-12-26T17:04:58;5.50;99.90
22418;DHT22;11376;50.932;4.442;2022-12-26T17:07:25;5.50;99.90
22418;DHT22;11376;50.932;4.442;2022-12-26T17:09:54;5.40;99.90
22418;DHT22;11376;50.932;4.442;2022-12-26T17:12:33;5.40;99.90
22418;DHT22;11376;50.932;4.442;2022-12-26T17:15:00;5.40;99.90
22418;DHT22;11376;50.932;4.442;2022-12-26T17:17:30;5.40;99.90
22418;DHT22;11376;50.932;4.442;2022-12-26T17:19:57;5.40;99.90
22418;DHT22;11376;50.932;4.442;2022-12-26T17:22:34;5.40;99.90
22418;DHT22;11376;50.932;4.442;2022-12-26T17:33:26;5.40;99.90
22418;DHT22;11376;50.932;4.442;2022-12-26T17:36:03;5.40;99.90
22418;DHT22;11376;50.932;4.442;2022-12-26T17:38:32;5.40;99.90
22418;DHT22;11376;50.932;4.442;2022-12-26T17:41:02;5.40;99.90
22418;DHT22;11376;50.932;4.442;2022-12-26T17:43:34;5.40;99.90
22418;DHT22;11376;50.932;4.442;2022-12-26T17:46:00;5.40;99.90
22418;DHT22;11376;50.932;4.442;2022-12-26T17:48:26;5.40;99.90
22418;DHT22;11376;50.932;4.442;2022-12-26T17:50:58;5.40;99.90
22418;DHT22;11376;50.932;4.442;2022-12-26T17:53:36;5.40;99.90
22418;DHT22;11376;50.932;4.442;2022-12-26T17:56:04;5.40;99.90
22418;DHT22;11376;50.932;4.442;2022-12-26T17:58:31;5.40;99.90
22418;DHT22;11376;50.932;4.442;2022-12-26T18:00:57;5.40;99.90
22418;DHT22;11376;50.932;4.442;2022-12-26T18:03:24;5.40;99.90
22418;DHT22;11376;50.932;4.442;2022-12-26T18:05:49;5.40;99.90
22418;DHT22;11376;50.932;4.442;2022-12-26T18:08:30;5.40;99.90
22418;DHT22;11376;50.932;4.442;2022-12-26T18:10:57;5.50;99.90
22418;DHT22;11376;50.932;4.442;2022-12-26T18:13:23;5.50;99.90
22418;DHT22;11376;50.932;4.442;2022-12-26T18:15:49;5.50;99.90
22418;DHT22;11376;50.932;4.442;2022-12-26T18:18:32;5.50;99.90
22418;DHT22;11376;50.932;4.442;2022-12-26T18:20:58;5.40;99.90
22418;DHT22;11376;50.932;4.442;2022-12-26T18:23:24;5.40;99.90
22418;DHT22;11376;50.932;4.442;2022-12-26T18:25:49;5.40;99.90
22418;DHT22;11376;50.932;4.442;2022-12-26T18:28:16;5.40;99.90
22418;DHT22;11376;50.932;4.442;2022-12-26T18:30:44;5.30;99.90
22418;DHT22;11376;50.932;4.442;2022-12-26T18:33:10;5.30;99.90
22418;DHT22;11376;50.932;4.442;2022-12-26T18:35:41;5.40;99.90
22418;DHT22;11376;50.932;4.442;2022-12-26T18:38:07;5.40;99.90
22418;DHT22;11376;50.932;4.442;2022-12-26T18:40:40;5.40;99.90
22418;DHT22;11376;50.932;4.442;2022-12-26T18:43:07;5.40;99.90
22418;DHT22;11376;50.932;4.442;2022-12-26T18:45:33;5.40;99.90
22418;DHT22;11376;50.932;4.442;2022-12-26T18:48:02;5.40;99.90
22418;DHT22;11376;50.932;4.442;2022-12-26T18:50:29;5.40;99.90
22418;DHT22;11376;50.932;4.442;2022-12-26T18:52:55;5.30;99.90
22418;DHT22;11376;50.932;4.442;2022-12-26T18:55:22;5.30;99.90
22418;DHT22;11376;50.932;4.442;2022-12-26T18:57:48;5.40;99.90
22418;DHT22;11376;50.932;4.442;2022-12-26T19:00:15;5.30;99.90
22418;DHT22;11376;50.932;4.442;2022-12-26T19:02:42;5.30;99.90
22418;DHT22;11376;50.932;4.442;2022-12-26T19:05:37;5.30;99.90
22418;DHT22;11376;50.932;4.442;2022-12-26T19:08:03;5.30;99.90
22418;DHT22;11376;50.932;4.442;2022-12-26T19:10:32;5.30;99.90
22418;DHT22;11376;50.932;4.442;2022-12-26T19:13:01;5.40;99.90
22418;DHT22;11376;50.932;4.442;2022-12-26T19:15:31;5.30;99.90
22418;DHT22;11376;50.932;4.442;2022-12-26T19:17:57;5.30;99.90
22418;DHT22;11376;50.932;4.442;2022-12-26T19:20:25;5.30;99.90
22418;DHT22;11376;50.932;4.442;2022-12-26T19:22:52;5.30;99.90